Time;durP1;ratioP1;P1;durP2;ratioP2;P2;SDS_P1;SDS_P2;PMS_P1;PMS_P2;Temp;Humidity;BMP_temperature;BMP_pressure;BME280_temperature;BME280_humidity;BME280_pressure;Samples;Min_cycle;Max_cycle;Signal;HPM_P1;HPM_P2
2022/10/26 00:04:37;;;;;;;18.52;10.73;;;;;;;9.85;80.71;100496.06;10364985;28;20049;-76
2022/10/26 00:09:39;;;;;;;;;;;;;;;9.79;80.88;100485.81;10374001;28;20057;-76
2022/10/26 00:14:44;;;;;;;17.98;9.95;;;;;;;9.62;81.06;100487.06;10393729;28;19925;-76
2022/10/26 00:19:46;;;;;;;15.63;9.43;;;;;;;9.72;80.50;100488.09;10375368;28;20056;-76
2022/10/26 00:24:49;;;;;;;;;;;;;;;9.56;81.26;100492.03;10362578;28;20060;-76
2022/10/26 00:29:53;;;;;;;17.55;9.18;;;;;;;9.63;81.06;100490.63;10355654;28;19925;-77
2022/10/26 00:34:56;;;;;;;19.98;9.60;;;;;;;9.54;81.44;100489.47;10365722;28;21535;-76
2022/10/26 00:40:02;;;;;;;14.00;9.98;;;;;;;9.62;81.00;100476.34;10373265;28;20236;-76
2022/10/26 00:45:16;;;;;;;20.20;9.65;;;;;;;9.56;80.78;100486.69;10356691;28;20423;-75
2022/10/26 00:50:22;;;;;;;17.05;9.38;;;;;;;9.49;80.95;100481.78;10357442;28;20434;-76
2022/10/26 00:55:31;;;;;;;15.32;9.40;;;;;;;9.51;80.90;100487.88;10365945;28;20076;-76
2022/10/26 01:00:36;;;;;;;13.18;8.60;;;;;;;9.51;80.83;100478.97;10378227;28;21151;-76
2022/10/26 01:05:42;;;;;;;12.68;9.07;;;;;;;9.51;80.99;100487.03;10366801;28;20136;-76
2022/10/26 01:10:45;;;;;;;13.45;9.40;;;;;;;9.55;81.08;100479.63;10356330;28;20042;-76
2022/10/26 01:15:59;;;;;;;15.40;8.63;;;;;;;9.46;81.26;100473.97;10354637;28;20045;-77
2022/10/26 01:21:22;;;;;;;16.33;9.10;;;;;;;9.44;81.33;100469.69;10390949;28;20096;-76
2022/10/26 01:26:41;;;;;;;14.43;8.63;;;;;;;9.39;81.53;100459.31;10392882;28;20045;-75
2022/10/26 01:31:52;;;;;;;16.02;8.30;;;;;;;9.43;81.65;100459.94;10366761;28;20176;-75
2022/10/26 01:36:58;;;;;;;16.83;9.10;;;;;;;9.50;81.28;100448.63;10354406;28;20056;-75
2022/10/26 01:42:05;;;;;;;16.75;10.27;;;;;;;9.46;81.25;100439.13;10382385;28;20054;-75
2022/10/26 01:47:12;;;;;;;14.52;8.48;;;;;;;9.42;81.41;100431.41;10372111;28;20400;-76
2022/10/26 01:52:15;;;;;;;11.95;7.90;;;;;;;9.54;81.18;100437.66;10378454;28;20052;-76
2022/10/26 01:57:20;;;;;;;11.57;8.15;;;;;;;9.55;80.97;100437.56;10375155;28;20146;-77
2022/10/26 02:02:58;;;;;;;12.88;7.70;;;;;;;9.56;80.83;100433.03;10402453;28;20056;-76
2022/10/26 02:08:14;;;;;;;11.70;7.40;;;;;;;9.59;81.04;100427.44;10357906;28;20068;-76
2022/10/26 02:13:24;;;;;;;16.92;8.25;;;;;;;9.52;81.00;100427.06;10366769;28;20050;-76
2022/10/26 02:18:34;;;;;;;15.70;8.45;;;;;;;9.51;81.34;100407.41;10375408;28;20124;-76
2022/10/26 02:23:41;;;;;;;12.45;7.93;;;;;;;9.54;81.40;100408.16;10372475;28;20095;-77
2022/10/26 02:28:48;;;;;;;12.43;8.20;;;;;;;9.50;81.51;100415.59;10376892;28;20044;-77
2022/10/26 02:33:55;;;;;;;15.80;8.65;;;;;;;9.47;81.75;100397.91;10384185;28;20056;-77
2022/10/26 02:38:59;;;;;;;16.70;8.65;;;;;;;9.42;82.21;100397.41;10377907;28;20046;-77
2022/10/26 02:44:08;;;;;;;11.82;7.55;;;;;;;9.47;82.00;100397.91;10377709;28;20733;-76
2022/10/26 02:49:13;;;;;;;16.00;8.27;;;;;;;9.48;81.97;100396.94;10374762;28;20469;-78
2022/10/26 02:54:21;;;;;;;15.18;8.70;;;;;;;9.53;82.03;100385.88;10365245;28;20188;-77
2022/10/26 02:59:29;;;;;;;14.63;8.77;;;;;;;9.52;82.03;100378.81;10376837;28;20045;-77
2022/10/26 03:04:35;;;;;;;13.93;8.50;;;;;;;9.50;82.32;100376.22;10373203;28;20053;-77
2022/10/26 03:09:37;;;;;;;14.65;8.82;;;;;;;9.41;82.34;100378.78;10384811;28;20072;-77
2022/10/26 03:14:41;;;;;;;17.08;9.35;;;;;;;9.43;82.42;100379.50;10378874;28;20049;-77
2022/10/26 03:19:45;;;;;;;17.02;9.45;;;;;;;9.36;82.76;100375.59;10359773;28;20045;-77
2022/10/26 03:24:48;;;;;;;14.50;8.68;;;;;;;9.39;82.61;100378.03;10356479;28;20045;-77
2022/10/26 03:29:50;;;;;;;17.63;9.57;;;;;;;9.36;82.99;100364.88;10374844;28;20124;-77
2022/10/26 03:34:54;;;;;;;;;;;;;;;9.36;82.92;100378.28;10367373;28;20453;-78
2022/10/26 03:39:57;;;;;;;22.08;10.85;;;;;;;9.37;82.84;100366.56;10370910;28;20401;-77
2022/10/26 03:45:00;;;;;;;;;;;;;;;9.31;83.12;100365.19;10378049;28;20053;-77
2022/10/26 03:50:05;;;;;;;22.55;11.25;;;;;;;9.35;83.38;100363.13;10409057;28;19981;-76
2022/10/26 03:55:12;;;;;;;21.40;11.85;;;;;;;9.33;83.35;100357.91;10370427;28;20084;-77
2022/10/26 04:00:16;;;;;;;;;;;;;;;9.29;83.61;100359.09;10379498;28;20049;-77
2022/10/26 04:05:20;;;;;;;20.55;11.35;;;;;;;9.33;83.48;100365.94;10390018;28;19925;-77
2022/10/26 04:10:24;;;;;;;21.55;11.18;;;;;;;9.34;83.82;100369.47;10384562;28;20052;-77
2022/10/26 04:15:27;;;;;;;25.58;11.20;;;;;;;9.39;83.57;100373.50;10389385;28;20518;-77
2022/10/26 04:20:33;;;;;;;19.95;12.27;;;;;;;9.41;83.37;100362.69;10390155;28;20655;-76
2022/10/26 04:25:36;;;;;;;26.55;12.98;;;;;;;9.38;83.16;100361.09;10400742;28;20057;-76
2022/10/26 04:30:40;;;;;;;23.88;13.40;;;;;;;9.42;83.26;100362.56;10361376;28;20037;-75
2022/10/26 04:35:45;;;;;;;20.02;12.07;;;;;;;9.44;83.25;100363.31;10369870;28;20144;-76
2022/10/26 04:40:51;;;;;;;26.95;13.50;;;;;;;9.44;83.33;100362.44;10367309;28;20619;-75
2022/10/26 04:45:55;;;;;;;24.73;13.07;;;;;;;9.38;83.26;100355.72;10376564;28;20590;-76
2022/10/26 04:51:00;;;;;;;27.58;14.93;;;;;;;9.35;83.70;100355.09;10380584;28;20049;-75
2022/10/26 04:56:03;;;;;;;30.40;15.50;;;;;;;9.28;83.94;100352.03;10367350;28;20057;-77
2022/10/26 05:01:06;;;;;;;28.90;15.50;;;;;;;9.35;83.91;100363.13;10367774;28;20510;-77
2022/10/26 05:06:10;;;;;;;29.80;14.52;;;;;;;9.31;84.07;100362.53;10357039;28;20049;-76
2022/10/26 05:11:13;;;;;;;30.90;15.02;;;;;;;9.36;84.31;100357.66;10362448;28;20061;-76
2022/10/26 05:16:16;;;;;;;33.95;15.65;;;;;;;9.37;84.01;100362.03;10360385;28;20056;-77
2022/10/26 05:21:20;;;;;;;29.95;16.17;;;;;;;9.32;84.23;100355.31;10370195;28;21516;-76
2022/10/26 05:26:24;;;;;;;37.35;15.90;;;;;;;9.34;84.21;100348.88;10372878;28;20414;-76
2022/10/26 05:31:26;;;;;;;28.33;15.82;;;;;;;9.32;84.33;100355.31;10376297;28;20037;-77
2022/10/26 05:36:31;;;;;;;;;;;;;;;9.40;83.96;100358.28;10384065;28;20056;-77
2022/10/26 05:41:33;;;;;;;29.60;15.40;;;;;;;9.38;84.24;100358.41;10406764;28;19925;-77
2022/10/26 05:46:36;;;;;;;28.85;16.00;;;;;;;9.39;84.10;100362.78;10387944;28;20053;-77
2022/10/26 05:51:40;;;;;;;31.55;16.67;;;;;;;9.38;84.11;100373.63;10353766;28;20216;-76
2022/10/26 05:56:44;;;;;;;30.90;15.77;;;;;;;9.45;84.07;100372.19;10361910;28;20049;-77
2022/10/26 06:02:01;;;;;;;24.50;15.43;;;;;;;9.43;84.06;100379.50;10409801;28;20129;-77
2022/10/26 06:07:11;;;;;;;33.13;16.83;;;;;;;9.51;83.70;100385.13;10378281;28;20187;-77
2022/10/26 06:12:15;;;;;;;34.60;16.08;;;;;;;9.54;83.72;100395.59;10373961;28;20057;-76
2022/10/26 06:17:36;;;;;;;27.67;14.75;;;;;;;9.51;83.76;100385.13;10373476;28;20053;-77
2022/10/26 06:23:01;;;;;;;28.70;15.50;;;;;;;9.61;83.57;100393.31;10370622;28;20128;-76
2022/10/26 06:28:15;;;;;;;32.08;14.32;;;;;;;9.70;83.44;100397.97;10357633;28;20517;-76
2022/10/26 06:33:18;;;;;;;33.55;14.98;;;;;;;9.78;83.30;100400.06;10397088;28;20048;-78
2022/10/26 06:38:37;;;;;;;24.98;14.10;;;;;;;9.71;83.76;100410.44;10411054;28;20053;-77
2022/10/26 06:43:41;;;;;;;22.77;13.50;;;;;;;9.84;83.28;100413.00;10378115;28;20056;-77
2022/10/26 06:48:51;;;;;;;23.23;13.20;;;;;;;9.93;82.99;100415.88;10370588;28;20580;-77
2022/10/26 06:54:05;;;;;;;22.65;12.98;;;;;;;10.09;82.68;100417.34;10379516;28;20044;-78
2022/10/26 06:59:14;;;;;;;25.65;12.93;;;;;;;10.06;82.38;100415.75;10370151;28;20073;-77
2022/10/26 07:04:17;;;;;;;22.75;12.50;;;;;;;10.13;82.42;100419.66;10385928;28;20143;-78
2022/10/26 07:09:21;;;;;;;;;;;;;;;10.15;82.37;100419.56;10390485;28;20069;-77
2022/10/26 07:14:24;;;;;;;19.77;11.88;;;;;;;10.39;81.96;100423.00;10392646;28;21083;-77
2022/10/26 07:19:26;;;;;;;;;;;;;;;10.47;81.78;100422.34;10394485;28;20045;-77
2022/10/26 07:24:31;;;;;;;21.55;11.20;;;;;;;10.63;81.28;100419.28;10362502;28;19955;-78
2022/10/26 07:29:34;;;;;;;19.25;10.35;;;;;;;10.73;80.96;100425.63;10351282;28;20533;-77
2022/10/26 07:34:37;;;;;;;16.63;9.90;;;;;;;10.86;80.79;100425.50;10350498;28;21158;-77
2022/10/26 07:39:41;;;;;;;15.75;9.80;;;;;;;10.95;80.32;100424.75;10332047;28;20721;-78
2022/10/26 07:44:44;;;;;;;13.07;8.68;;;;;;;11.06;79.83;100426.53;10342961;28;20050;-77
2022/10/26 07:49:46;;;;;;;12.52;8.32;;;;;;;11.29;79.23;100421.97;10333159;28;20069;-77
2022/10/26 07:54:54;;;;;;;13.70;7.75;;;;;;;11.48;78.35;100415.91;10368144;28;20769;-77
2022/10/26 07:59:56;;;;;;;13.60;8.13;;;;;;;11.94;77.60;100431.66;10372067;28;20069;-77
2022/10/26 08:04:59;;;;;;;10.63;5.95;;;;;;;12.32;75.53;100426.69;10340913;28;20498;-77
2022/10/26 08:10:03;;;;;;;;;;;;;;;13.20;72.01;100431.31;10369798;28;20053;-78
2022/10/26 08:15:07;;;;;;;12.25;7.15;;;;;;;13.58;71.19;100426.13;10393871;28;20291;-77
2022/10/26 08:20:11;;;;;;;15.65;6.75;;;;;;;13.52;69.56;100416.75;10406147;28;20612;-77
2022/10/26 08:25:15;;;;;;;11.98;6.78;;;;;;;14.18;69.28;100431.25;10368933;28;20514;-78
2022/10/26 08:30:23;;;;;;;11.95;6.15;;;;;;;13.93;68.55;100422.78;10434675;23;20690;-80
2022/10/26 08:35:26;;;;;;;11.45;6.78;;;;;;;13.71;70.37;100422.13;10452955;28;20056;-78
2022/10/26 08:40:32;;;;;;;9.48;6.70;;;;;;;13.62;70.47;100419.44;10454279;28;20076;-80
2022/10/26 08:45:38;;;;;;;10.07;6.30;;;;;;;13.35;71.28;100409.31;10443632;28;20494;-78
2022/10/26 08:50:46;;;;;;;13.43;6.95;;;;;;;13.35;72.13;100410.16;10442991;28;20572;-79
2022/10/26 08:55:54;;;;;;;9.30;6.28;;;;;;;13.68;71.71;100414.28;10450549;28;20167;-78
2022/10/26 09:00:58;;;;;;;8.55;6.05;;;;;;;13.70;71.34;100425.81;10440414;28;20037;-80
2022/10/26 09:06:17;;;;;;;9.27;5.90;;;;;;;13.85;70.83;100419.94;10425649;28;20169;-80
2022/10/26 09:11:35;;;;;;;7.82;5.60;;;;;;;14.07;71.23;100416.94;10447496;28;20202;-80
2022/10/26 09:16:48;;;;;;;8.50;5.60;;;;;;;14.24;70.25;100412.63;10449553;28;20706;-78
2022/10/26 09:21:55;;;;;;;;;;;;;;;14.34;69.55;100408.03;10473808;28;20045;-79
2022/10/26 09:27:07;;;;;;;11.32;4.75;;;;;;;14.31;69.01;100416.41;10473424;28;19975;-80
2022/10/26 09:32:17;;;;;;;7.93;4.53;;;;;;;14.45;69.33;100411.56;10463136;28;20044;-79
2022/10/26 09:37:24;;;;;;;13.55;5.43;;;;;;;15.07;67.74;100403.69;10459594;28;20050;-80
2022/10/26 09:42:36;;;;;;;11.98;4.20;;;;;;;15.23;66.51;100396.56;10453154;28;20052;-80
2022/10/26 09:47:41;;;;;;;9.48;4.25;;;;;;;15.38;66.94;100399.63;10446255;28;20698;-80
2022/10/26 09:52:44;;;;;;;8.95;4.15;;;;;;;16.09;65.50;100408.63;10451723;28;20049;-78
2022/10/26 09:57:52;;;;;;;8.20;4.18;;;;;;;17.38;61.12;100400.34;10454584;28;20060;-80
2022/10/26 10:02:56;;;;;;;6.50;3.25;;;;;;;18.64;57.80;100395.22;10447891;28;20112;-79
2022/10/26 10:08:15;;;;;;;9.25;3.28;;;;;;;19.23;55.89;100408.38;10450584;28;21046;-79
2022/10/26 10:13:22;;;;;;;6.88;3.35;;;;;;;19.38;55.44;100402.97;10451833;28;20203;-80
2022/10/26 10:18:25;;;;;;;7.90;3.40;;;;;;;18.82;56.69;100413.22;10437563;28;20036;-79
2022/10/26 10:23:31;;;;;;;3.33;2.88;;;;;;;19.08;57.10;100421.88;10452017;28;20065;-80
2022/10/26 10:28:35;;;;;;;7.72;3.17;;;;;;;19.20;56.58;100433.25;10460209;28;20045;-79
2022/10/26 10:33:40;;;;;;;4.60;2.50;;;;;;;20.48;53.62;100435.22;10447423;28;20111;-79
2022/10/26 10:38:44;;;;;;;3.78;2.50;;;;;;;21.24;51.16;100438.53;10465272;28;20047;-79
2022/10/26 10:43:51;;;;;;;6.15;2.78;;;;;;;22.09;49.82;100440.41;10446572;28;20064;-82
2022/10/26 10:49:02;;;;;;;7.85;2.80;;;;;;;22.64;48.00;100451.53;10441276;28;20051;-79
2022/10/26 10:54:15;;;;;;;5.38;2.80;;;;;;;22.55;47.31;100463.72;10429503;28;20471;-78
2022/10/26 10:59:38;;;;;;;6.43;2.47;;;;;;;21.62;49.75;100458.28;10445768;28;20029;-79
2022/10/26 11:04:59;;;;;;;5.50;2.35;;;;;;;22.88;48.02;100457.56;10421631;28;20045;-80
2022/10/26 11:10:03;;;;;;;2.35;2.00;;;;;;;24.16;45.16;100450.25;10442790;28;20041;-80
2022/10/26 11:15:14;;;;;;;4.93;1.98;;;;;;;23.87;44.91;100457.88;10444928;28;20040;-79
2022/10/26 11:20:20;;;;;;;6.18;2.95;;;;;;;23.95;45.60;100458.72;10440908;28;20049;-81
2022/10/26 11:25:28;;;;;;;4.95;2.45;;;;;;;24.82;43.10;100454.81;10433353;28;20052;-79
2022/10/26 11:30:37;;;;;;;5.07;2.10;;;;;;;25.27;42.01;100454.00;10440198;28;20044;-81
2022/10/26 11:35:46;;;;;;;4.80;1.90;;;;;;;25.96;41.47;100452.28;10450289;28;20045;-80
2022/10/26 11:40:57;;;;;;;3.95;2.03;;;;;;;26.18;40.96;100459.06;10448373;28;20056;-79
2022/10/26 11:46:08;;;;;;;4.72;1.83;;;;;;;26.74;40.08;100460.84;10438771;28;20049;-79
2022/10/26 11:51:20;;;;;;;3.45;1.60;;;;;;;26.11;40.67;100466.56;10440700;28;20057;-79
2022/10/26 11:56:30;;;;;;;4.72;2.33;;;;;;;26.31;41.11;100452.63;10438770;28;20056;-78
2022/10/26 12:01:35;;;;;;;10.10;2.08;;;;;;;26.61;40.54;100446.38;10439301;28;20084;-79
2022/10/26 12:06:38;;;;;;;6.15;1.73;;;;;;;26.10;41.22;100459.34;10442746;28;20053;-79
2022/10/26 12:11:46;;;;;;;4.60;1.85;;;;;;;25.22;42.68;100453.81;10439726;28;20072;-80
2022/10/26 12:16:58;;;;;;;7.47;2.05;;;;;;;24.54;43.47;100444.09;10452044;28;20041;-80
2022/10/26 12:22:01;;;;;;;6.05;1.75;;;;;;;24.41;44.60;100458.72;10446213;28;20581;-81
2022/10/26 12:27:05;;;;;;;4.10;1.38;;;;;;;23.28;45.19;100474.16;10437637;28;20065;-81
2022/10/26 12:32:49;;;;;;;4.93;1.27;;;;;;;23.21;44.27;100474.16;10451972;28;20160;-80
2022/10/26 12:37:54;;;;;;;5.07;1.23;;;;;;;20.66;49.26;100473.06;10453019;28;20669;-81
2022/10/26 12:42:58;;;;;;;5.32;1.58;;;;;;;20.45;51.28;100466.47;10445804;28;20053;-81
2022/10/26 12:48:03;;;;;;;8.43;1.42;;;;;;;20.68;50.90;100470.97;10425034;28;20049;-81
2022/10/26 12:53:26;;;;;;;2.97;1.23;;;;;;;21.58;49.07;100476.09;10450648;28;20045;-80
2022/10/26 12:59:06;;;;;;;3.78;1.30;;;;;;;22.29;48.74;100476.13;10456903;28;20041;-81
2022/10/26 13:04:25;;;;;;;4.80;1.15;;;;;;;22.13;48.26;100489.25;10442299;28;20129;-81
2022/10/26 13:09:32;;;;;;;6.53;1.75;;;;;;;21.58;49.46;100487.03;10451846;28;20454;-80
2022/10/26 13:14:40;;;;;;;7.85;1.67;;;;;;;21.42;50.43;100495.50;10445689;28;20129;-79
2022/10/26 13:19:45;;;;;;;6.38;2.30;;;;;;;21.59;49.58;100483.25;10455851;28;20032;-78
2022/10/26 13:24:53;;;;;;;4.97;1.85;;;;;;;22.41;49.37;100495.59;10449404;28;20072;-79
2022/10/26 13:30:20;;;;;;;7.18;1.67;;;;;;;21.77;49.92;100507.44;10432283;28;20505;-80
2022/10/26 13:35:25;;;;;;;7.78;1.77;;;;;;;21.64;50.04;100507.28;10468035;28;20052;-78
2022/10/26 13:40:30;;;;;;;4.22;1.35;;;;;;;22.08;50.36;100515.31;10461558;28;20083;-80
2022/10/26 13:45:40;;;;;;;6.47;1.73;;;;;;;21.89;49.97;100514.09;10460512;28;20049;-78
2022/10/26 13:50:48;;;;;;;6.85;1.88;;;;;;;21.76;50.42;100510.38;10468703;28;20056;-79
2022/10/26 13:55:54;;;;;;;5.05;1.40;;;;;;;21.14;51.46;100526.22;10463519;28;20037;-79
2022/10/26 14:01:11;;;;;;;8.00;1.88;;;;;;;19.97;55.20;100531.31;10460931;28;20037;-78
2022/10/26 14:06:19;;;;;;;10.82;1.77;;;;;;;20.02;55.19;100519.84;10449198;28;20041;-78
2022/10/26 14:11:32;;;;;;;2.58;1.85;;;;;;;20.30;54.27;100520.13;10453345;28;20041;-79
2022/10/26 14:16:35;;;;;;;5.40;2.10;;;;;;;20.57;53.76;100521.44;10457893;28;20073;-79
2022/10/26 14:21:41;;;;;;;2.38;1.45;;;;;;;19.94;55.29;100518.06;10459455;28;20045;-79
2022/10/26 14:26:46;;;;;;;6.22;2.40;;;;;;;19.64;55.59;100531.56;10454407;28;20044;-78
2022/10/26 14:31:49;;;;;;;8.48;1.92;;;;;;;19.68;55.29;100530.16;10457422;23;20409;-77
2022/10/26 14:36:55;;;;;;;7.40;2.08;;;;;;;19.83;55.19;100532.13;10420571;28;20041;-78
2022/10/26 14:42:02;;;;;;;7.53;2.47;;;;;;;19.73;55.83;100545.13;10420406;28;20119;-77
2022/10/26 14:47:13;;;;;;;7.13;2.30;;;;;;;19.93;55.68;100549.06;10423051;28;20406;-78
2022/10/26 14:52:22;;;;;;;4.93;1.85;;;;;;;19.38;57.01;100566.41;10429267;28;20080;-78
2022/10/26 14:57:32;;;;;;;6.18;2.38;;;;;;;19.64;56.79;100556.06;10428745;28;20862;-78
2022/10/26 15:02:35;;;;;;;6.25;2.30;;;;;;;19.67;56.45;100560.31;10397987;28;20125;-77
2022/10/26 15:07:42;;;;;;;6.25;2.25;;;;;;;19.71;56.75;100563.53;10404238;28;20082;-77
2022/10/26 15:12:56;;;;;;;10.30;2.55;;;;;;;19.58;57.00;100573.16;10397584;28;20107;-78
2022/10/26 15:17:59;;;;;;;10.77;2.53;;;;;;;19.49;57.51;100576.06;10385185;28;20045;-78
2022/10/26 15:23:03;;;;;;;9.25;2.70;;;;;;;18.99;59.34;100580.84;10395084;28;20065;-78
2022/10/26 15:28:20;;;;;;;8.68;2.22;;;;;;;18.73;59.56;100583.75;10391740;28;20092;-77
2022/10/26 15:33:23;;;;;;;7.35;2.50;;;;;;;18.70;60.05;100590.38;10369017;28;20080;-76
2022/10/26 15:38:26;;;;;;;9.75;2.35;;;;;;;18.62;60.44;100606.72;10421284;28;20131;-77
2022/10/26 15:43:35;;;;;;;3.95;1.83;;;;;;;18.39;61.19;100603.88;10422059;28;20041;-77
2022/10/26 15:48:39;;;;;;;7.78;2.25;;;;;;;18.13;62.25;100614.91;10431599;28;20041;-76
2022/10/26 15:53:42;;;;;;;11.98;2.45;;;;;;;17.99;62.64;100620.97;10437146;28;20033;-77
2022/10/26 15:58:46;;;;;;;4.68;2.20;;;;;;;17.92;62.86;100624.34;10428829;28;20120;-78
2022/10/26 16:03:49;;;;;;;7.68;1.98;;;;;;;17.79;63.55;100623.97;10437712;28;20044;-78
2022/10/26 16:08:55;;;;;;;6.97;2.35;;;;;;;17.60;64.16;100624.25;10434468;28;20617;-78
2022/10/26 16:13:59;;;;;;;6.40;2.90;;;;;;;17.52;64.35;100627.78;10432165;28;20099;-78
2022/10/26 16:19:05;;;;;;;4.88;2.25;;;;;;;17.30;65.27;100636.50;10431722;28;20491;-77
2022/10/26 16:24:30;;;;;;;11.25;2.22;;;;;;;17.27;65.24;100643.13;10434270;28;20049;-78
2022/10/26 16:29:34;;;;;;;5.18;2.85;;;;;;;17.27;65.59;100650.41;10419669;28;20065;-79
2022/10/26 16:34:36;;;;;;;8.07;2.63;;;;;;;17.14;66.13;100656.28;10398562;28;20045;-79
2022/10/26 16:39:39;;;;;;;4.95;2.33;;;;;;;17.19;65.90;100662.91;10372418;28;20175;-76
2022/10/26 16:44:43;;;;;;;5.15;2.25;;;;;;;17.14;66.45;100680.69;10360143;28;20422;-77
2022/10/26 16:49:46;;;;;;;6.13;2.63;;;;;;;17.11;66.62;100683.72;10356814;28;20263;-77
2022/10/26 16:54:49;;;;;;;5.53;2.72;;;;;;;16.98;67.04;100700.44;10358852;28;20057;-77
2022/10/26 16:59:53;;;;;;;4.60;2.42;;;;;;;16.84;67.92;100698.25;10365973;28;20517;-77
2022/10/26 17:04:56;;;;;;;5.47;2.58;;;;;;;16.79;68.05;100699.59;10373084;28;20051;-76
2022/10/26 17:10:00;;;;;;;10.15;3.35;;;;;;;16.72;68.42;100709.38;10376205;28;20053;-75
2022/10/26 17:15:04;;;;;;;5.53;3.20;;;;;;;16.68;68.48;100728.84;10369396;28;20735;-76
2022/10/26 17:20:08;;;;;;;7.35;3.70;;;;;;;16.53;69.30;100728.53;10366266;28;20049;-76
2022/10/26 17:25:11;;;;;;;6.47;2.90;;;;;;;16.49;69.57;100740.69;10353086;28;20041;-77
2022/10/26 17:30:15;;;;;;;8.10;3.00;;;;;;;16.44;69.63;100756.56;10357555;28;20115;-77
2022/10/26 17:35:18;;;;;;;4.65;2.88;;;;;;;16.36;70.48;100763.59;10361204;28;20045;-77
2022/10/26 17:40:21;;;;;;;4.68;2.70;;;;;;;16.30;70.46;100768.78;10386561;28;20182;-77
2022/10/26 17:45:25;;;;;;;5.68;3.15;;;;;;;16.20;71.38;100784.22;10383064;28;20048;-77
2022/10/26 17:50:28;;;;;;;5.97;2.90;;;;;;;16.11;71.68;100792.25;10386193;28;20053;-76
2022/10/26 17:55:31;;;;;;;5.50;3.22;;;;;;;16.31;71.09;100806.56;10388090;28;20086;-76
2022/10/26 18:00:35;;;;;;;6.72;3.17;;;;;;;16.31;70.98;100809.28;10383749;28;20057;-76
2022/10/26 18:05:38;;;;;;;7.88;2.97;;;;;;;16.25;71.21;100828.84;10377846;28;20056;-76
2022/10/26 18:10:46;;;;;;;6.40;3.35;;;;;;;16.10;71.35;100836.63;10385588;28;20045;-76
2022/10/26 18:15:50;;;;;;;7.90;3.22;;;;;;;15.92;71.97;100849.25;10383935;28;21276;-76
2022/10/26 18:21:00;;;;;;;6.10;3.72;;;;;;;15.78;72.86;100849.72;10347544;28;20125;-76
2022/10/26 18:26:05;;;;;;;7.68;4.05;;;;;;;15.75;73.14;100856.28;10354195;28;20199;-76
2022/10/26 18:31:18;;;;;;;7.87;3.83;;;;;;;15.69;73.33;100860.44;10332144;28;21214;-76
2022/10/26 18:36:21;;;;;;;7.90;3.67;;;;;;;15.68;73.72;100868.69;10334813;28;20054;-77
2022/10/26 18:41:25;;;;;;;12.82;3.40;;;;;;;15.67;73.91;100875.13;10350131;28;20077;-76
2022/10/26 18:46:32;;;;;;;6.60;3.83;;;;;;;15.71;73.27;100879.22;10343158;28;20054;-76
2022/10/26 18:51:35;;;;;;;5.38;3.17;;;;;;;15.76;72.93;100890.47;10352879;28;20053;-76
2022/10/26 18:56:38;;;;;;;6.05;3.10;;;;;;;15.69;73.04;100900.22;10352652;28;20053;-76
2022/10/26 19:01:42;;;;;;;6.25;3.38;;;;;;;15.72;72.57;100901.78;10354681;28;20176;-76
2022/10/26 19:06:47;;;;;;;8.88;3.33;;;;;;;15.68;72.56;100912.88;10379042;28;20044;-76
2022/10/26 19:11:50;;;;;;;10.18;7.35;;;;;;;15.56;72.65;100919.47;10379602;28;20099;-76
2022/10/26 19:16:55;;;;;;;11.20;7.95;;;;;;;15.43;73.51;100918.88;10382275;28;20046;-76
2022/10/26 19:21:58;;;;;;;14.75;7.25;;;;;;;15.28;73.42;100921.16;10398251;28;20136;-76
2022/10/26 19:27:01;;;;;;;8.63;4.70;;;;;;;15.18;74.46;100934.66;10361620;28;20122;-76
2022/10/26 19:32:06;;;;;;;11.13;4.63;;;;;;;15.23;74.63;100934.25;10381452;28;20053;-76
2022/10/26 19:37:09;;;;;;;10.00;5.38;;;;;;;15.19;74.41;100941.81;10380598;28;20057;-76
2022/10/26 19:42:12;;;;;;;10.80;5.45;;;;;;;15.21;74.64;100949.75;10372905;28;20084;-76
2022/10/26 19:47:16;;;;;;;9.15;4.68;;;;;;;15.27;74.11;100960.00;10340356;28;20052;-78
2022/10/26 19:52:19;;;;;;;10.13;5.03;;;;;;;15.24;73.94;100960.31;10364460;28;20140;-77
2022/10/26 19:57:21;;;;;;;8.02;4.85;;;;;;;15.09;74.42;100969.84;10371639;28;20171;-77
2022/10/26 20:02:26;;;;;;;16.50;4.65;;;;;;;15.13;73.59;100971.25;10381054;28;20048;-77
2022/10/26 20:07:28;;;;;;;9.02;5.05;;;;;;;15.09;73.97;100981.50;10370911;28;20075;-76
2022/10/26 20:12:31;;;;;;;10.02;4.55;;;;;;;15.10;73.60;100985.06;10380334;28;20132;-77
2022/10/26 20:17:36;;;;;;;8.85;4.28;;;;;;;15.03;73.58;100982.94;10383722;28;20049;-77
2022/10/26 20:22:38;;;;;;;8.68;4.10;;;;;;;14.96;73.66;100989.88;10375771;28;21330;-77
2022/10/26 20:27:41;;;;;;;11.20;4.53;;;;;;;14.94;73.62;100993.72;10386510;28;20049;-77
2022/10/26 20:32:45;;;;;;;7.57;4.30;;;;;;;14.99;73.47;100996.84;10393103;28;20071;-77
2022/10/26 20:37:48;;;;;;;6.88;4.35;;;;;;;14.91;73.96;101004.81;10388374;28;20052;-77
2022/10/26 20:42:52;;;;;;;7.93;4.45;;;;;;;14.75;74.63;101011.56;10385528;28;20064;-77
2022/10/26 20:47:58;;;;;;;10.57;4.60;;;;;;;14.79;74.09;101014.88;10395056;28;20581;-75
2022/10/26 20:53:06;;;;;;;6.43;4.50;;;;;;;14.79;74.27;101015.72;10377048;28;20053;-77
2022/10/26 20:58:14;;;;;;;7.35;4.30;;;;;;;14.78;73.96;101014.03;10355721;28;20045;-76
2022/10/26 21:03:18;;;;;;;8.00;4.10;;;;;;;14.67;74.73;101018.66;10360932;28;20049;-76
2022/10/26 21:08:21;;;;;;;13.48;4.43;;;;;;;14.70;74.35;101026.50;10351663;28;20535;-77
2022/10/26 21:13:24;;;;;;;10.05;4.60;;;;;;;14.65;74.79;101024.22;10348506;28;20118;-77
2022/10/26 21:18:28;;;;;;;9.30;4.60;;;;;;;14.59;74.80;101022.91;10364005;28;20060;-77
2022/10/26 21:23:31;;;;;;;12.55;4.95;;;;;;;14.60;75.25;101038.13;10357142;28;20486;-77
2022/10/26 21:28:36;;;;;;;13.40;4.80;;;;;;;14.61;74.93;101028.16;10343150;28;20060;-77
2022/10/26 21:33:41;;;;;;;7.00;4.43;;;;;;;14.62;74.77;101035.31;10345596;28;20135;-77
2022/10/26 21:38:45;;;;;;;10.50;4.50;;;;;;;14.64;74.71;101045.97;10353527;28;20041;-77
2022/10/26 21:43:49;;;;;;;7.95;4.80;;;;;;;14.62;74.66;101040.72;10360107;28;20073;-77
2022/10/26 21:49:12;;;;;;;7.68;4.68;;;;;;;14.59;74.53;101046.41;10355243;28;20611;-77
2022/10/26 21:54:14;;;;;;;10.55;4.78;;;;;;;14.59;74.59;101049.94;10356460;28;20083;-77
2022/10/26 21:59:17;;;;;;;10.45;5.65;;;;;;;14.56;74.58;101058.34;10349898;28;20042;-77
2022/10/26 22:04:21;;;;;;;9.50;5.57;;;;;;;14.46;74.50;101056.56;10338098;28;20685;-77
2022/10/26 22:09:24;;;;;;;6.75;5.05;;;;;;;14.34;74.77;101055.72;10343794;28;20057;-77
2022/10/26 22:14:27;;;;;;;10.02;4.68;;;;;;;14.27;75.10;101063.53;10356092;28;20052;-77
2022/10/26 22:19:31;;;;;;;8.07;4.32;;;;;;;14.20;75.19;101064.16;10333577;28;20551;-77
2022/10/26 22:24:34;;;;;;;8.25;3.85;;;;;;;14.19;75.35;101063.31;10348891;28;20679;-77
2022/10/26 22:29:37;;;;;;;9.35;3.83;;;;;;;14.24;75.27;101076.44;10357142;28;20057;-77
2022/10/26 22:34:41;;;;;;;7.75;3.17;;;;;;;14.21;75.27;101077.56;10349236;28;20077;-77
2022/10/26 22:39:45;;;;;;;4.53;3.45;;;;;;;14.10;74.99;101073.06;10340167;28;20052;-77
2022/10/26 22:44:49;;;;;;;9.05;3.58;;;;;;;14.03;75.57;101076.41;10360436;28;20126;-77
2022/10/26 22:49:53;;;;;;;7.68;3.20;;;;;;;14.00;75.60;101082.09;10337147;28;20124;-77
2022/10/26 22:54:56;;;;;;;7.43;4.10;;;;;;;13.92;75.71;101090.84;10335481;28;20054;-77
2022/10/26 22:59:59;;;;;;;6.53;4.10;;;;;;;13.84;75.96;101088.75;10385177;28;21306;-77
2022/10/26 23:05:03;;;;;;;12.40;4.57;;;;;;;13.82;76.28;101079.06;10389825;28;20501;-77
2022/10/26 23:10:07;;;;;;;9.35;4.32;;;;;;;13.79;75.96;101093.69;10390942;28;20075;-77
2022/10/26 23:15:10;;;;;;;7.72;4.28;;;;;;;13.70;76.11;101091.78;10370891;28;20045;-77
2022/10/26 23:20:15;;;;;;;5.90;4.55;;;;;;;13.65;76.01;101099.38;10389635;28;20053;-77
2022/10/26 23:25:18;;;;;;;11.95;5.03;;;;;;;13.60;76.03;101107.88;10388127;28;20059;-77
2022/10/26 23:30:20;;;;;;;5.53;4.40;;;;;;;13.66;76.01;101106.53;10385954;28;20051;-77